sensor_id;sensor_type;location;lat;lon;timestamp;P1;durP1;ratioP1;P2;durP2;ratioP2
59093;SDS011;44880;52.814;18.270;2022-10-16T00:02:11;41.90;;;26.50;;
59093;SDS011;44880;52.814;18.270;2022-10-16T00:04:42;42.10;;;28.30;;
59093;SDS011;44880;52.814;18.270;2022-10-16T00:07:14;41.80;;;27.70;;
59093;SDS011;44880;52.814;18.270;2022-10-16T00:09:45;42.20;;;27.80;;
59093;SDS011;44880;52.814;18.270;2022-10-16T00:12:17;42.20;;;28.50;;
59093;SDS011;44880;52.814;18.270;2022-10-16T00:14:50;47.30;;;29.90;;
59093;SDS011;44880;52.814;18.270;2022-10-16T00:17:21;49.10;;;31.60;;
59093;SDS011;44880;52.814;18.270;2022-10-16T00:19:53;49.50;;;32.10;;
59093;SDS011;44880;52.814;18.270;2022-10-16T00:22:25;48.70;;;32.80;;
59093;SDS011;44880;52.814;18.270;2022-10-16T00:24:56;47.30;;;32.00;;
59093;SDS011;44880;52.814;18.270;2022-10-16T00:27:28;45.40;;;29.30;;
59093;SDS011;44880;52.814;18.270;2022-10-16T00:29:59;43.80;;;29.30;;
59093;SDS011;44880;52.814;18.270;2022-10-16T00:32:31;42.30;;;27.10;;
59093;SDS011;44880;52.814;18.270;2022-10-16T00:35:03;43.00;;;27.50;;
59093;SDS011;44880;52.814;18.270;2022-10-16T00:37:35;40.00;;;27.00;;
59093;SDS011;44880;52.814;18.270;2022-10-16T00:40:08;39.90;;;27.10;;
59093;SDS011;44880;52.814;18.270;2022-10-16T00:42:40;50.90;;;35.30;;
59093;SDS011;44880;52.814;18.270;2022-10-16T00:45:11;55.30;;;38.70;;
59093;SDS011;44880;52.814;18.270;2022-10-16T00:47:43;58.30;;;40.60;;
59093;SDS011;44880;52.814;18.270;2022-10-16T00:50:18;50.60;;;37.80;;
59093;SDS011;44880;52.814;18.270;2022-10-16T00:52:54;54.40;;;36.70;;
59093;SDS011;44880;52.814;18.270;2022-10-16T00:55:26;57.00;;;38.00;;
59093;SDS011;44880;52.814;18.270;2022-10-16T00:57:58;58.30;;;38.00;;
59093;SDS011;44880;52.814;18.270;2022-10-16T01:00:30;52.30;;;33.70;;
59093;SDS011;44880;52.814;18.270;2022-10-16T01:03:02;49.50;;;32.80;;
59093;SDS011;44880;52.814;18.270;2022-10-16T01:05:49;47.00;;;31.70;;
59093;SDS011;44880;52.814;18.270;2022-10-16T01:08:25;45.30;;;30.70;;
59093;SDS011;44880;52.814;18.270;2022-10-16T01:11:03;45.90;;;31.80;;
59093;SDS011;44880;52.814;18.270;2022-10-16T01:13:38;48.90;;;32.00;;
59093;SDS011;44880;52.814;18.270;2022-10-16T01:16:13;52.50;;;34.80;;
59093;SDS011;44880;52.814;18.270;2022-10-16T01:18:48;50.10;;;35.20;;
59093;SDS011;44880;52.814;18.270;2022-10-16T01:21:22;48.30;;;34.70;;
59093;SDS011;44880;52.814;18.270;2022-10-16T01:23:58;49.90;;;35.30;;
59093;SDS011;44880;52.814;18.270;2022-10-16T01:26:44;52.00;;;36.80;;
59093;SDS011;44880;52.814;18.270;2022-10-16T01:29:34;51.10;;;36.00;;
59093;SDS011;44880;52.814;18.270;2022-10-16T01:32:13;52.20;;;36.30;;
59093;SDS011;44880;52.814;18.270;2022-10-16T01:34:49;54.30;;;37.40;;
59093;SDS011;44880;52.814;18.270;2022-10-16T01:37:25;52.40;;;35.80;;
59093;SDS011;44880;52.814;18.270;2022-10-16T01:40:02;47.90;;;33.50;;
59093;SDS011;44880;52.814;18.270;2022-10-16T01:42:37;50.50;;;33.90;;
59093;SDS011;44880;52.814;18.270;2022-10-16T01:45:12;48.80;;;34.00;;
59093;SDS011;44880;52.814;18.270;2022-10-16T01:47:46;48.20;;;34.60;;
59093;SDS011;44880;52.814;18.270;2022-10-16T01:50:19;47.90;;;32.90;;
59093;SDS011;44880;52.814;18.270;2022-10-16T01:52:51;43.80;;;30.50;;
59093;SDS011;44880;52.814;18.270;2022-10-16T01:55:26;43.40;;;30.20;;
59093;SDS011;44880;52.814;18.270;2022-10-16T01:58:00;42.30;;;31.00;;
59093;SDS011;44880;52.814;18.270;2022-10-16T02:00:33;45.70;;;31.00;;
59093;SDS011;44880;52.814;18.270;2022-10-16T02:03:08;46.30;;;31.60;;
59093;SDS011;44880;52.814;18.270;2022-10-16T02:05:44;47.40;;;32.50;;
59093;SDS011;44880;52.814;18.270;2022-10-16T02:08:17;45.30;;;31.50;;
59093;SDS011;44880;52.814;18.270;2022-10-16T02:10:48;51.60;;;33.70;;
59093;SDS011;44880;52.814;18.270;2022-10-16T02:13:21;48.30;;;33.10;;
59093;SDS011;44880;52.814;18.270;2022-10-16T02:15:55;43.00;;;31.90;;
59093;SDS011;44880;52.814;18.270;2022-10-16T02:18:27;48.60;;;32.50;;
59093;SDS011;44880;52.814;18.270;2022-10-16T02:21:01;42.10;;;31.00;;
59093;SDS011;44880;52.814;18.270;2022-10-16T02:23:37;41.00;;;29.20;;
59093;SDS011;44880;52.814;18.270;2022-10-16T02:26:16;37.60;;;27.10;;
59093;SDS011;44880;52.814;18.270;2022-10-16T02:28:57;39.50;;;26.00;;
59093;SDS011;44880;52.814;18.270;2022-10-16T02:31:32;38.90;;;26.80;;
59093;SDS011;44880;52.814;18.270;2022-10-16T02:34:08;38.00;;;27.50;;
59093;SDS011;44880;52.814;18.270;2022-10-16T02:36:40;44.10;;;31.80;;
59093;SDS011;44880;52.814;18.270;2022-10-16T02:39:13;43.90;;;31.00;;
59093;SDS011;44880;52.814;18.270;2022-10-16T02:41:45;42.50;;;29.20;;
59093;SDS011;44880;52.814;18.270;2022-10-16T02:44:17;48.80;;;30.70;;
59093;SDS011;44880;52.814;18.270;2022-10-16T02:46:48;42.00;;;29.50;;
59093;SDS011;44880;52.814;18.270;2022-10-16T02:49:20;41.90;;;29.10;;
59093;SDS011;44880;52.814;18.270;2022-10-16T02:51:51;36.20;;;25.60;;
59093;SDS011;44880;52.814;18.270;2022-10-16T02:54:23;38.60;;;25.50;;
59093;SDS011;44880;52.814;18.270;2022-10-16T02:56:54;33.50;;;22.60;;
59093;SDS011;44880;52.814;18.270;2022-10-16T02:59:26;34.30;;;23.20;;
59093;SDS011;44880;52.814;18.270;2022-10-16T03:01:57;33.90;;;24.10;;
59093;SDS011;44880;52.814;18.270;2022-10-16T03:04:29;38.60;;;26.00;;
59093;SDS011;44880;52.814;18.270;2022-10-16T03:07:00;39.30;;;27.60;;
59093;SDS011;44880;52.814;18.270;2022-10-16T03:09:32;37.00;;;27.50;;
59093;SDS011;44880;52.814;18.270;2022-10-16T03:12:04;36.60;;;26.40;;
59093;SDS011;44880;52.814;18.270;2022-10-16T03:14:36;39.50;;;27.10;;
59093;SDS011;44880;52.814;18.270;2022-10-16T03:17:08;40.30;;;28.30;;
59093;SDS011;44880;52.814;18.270;2022-10-16T03:19:41;38.10;;;27.40;;
59093;SDS011;44880;52.814;18.270;2022-10-16T03:22:12;35.20;;;26.70;;
59093;SDS011;44880;52.814;18.270;2022-10-16T03:24:43;33.20;;;23.50;;
59093;SDS011;44880;52.814;18.270;2022-10-16T03:27:15;36.20;;;26.10;;
59093;SDS011;44880;52.814;18.270;2022-10-16T03:29:46;35.60;;;26.60;;
59093;SDS011;44880;52.814;18.270;2022-10-16T03:32:18;36.20;;;26.40;;
59093;SDS011;44880;52.814;18.270;2022-10-16T03:34:49;37.40;;;28.70;;
59093;SDS011;44880;52.814;18.270;2022-10-16T03:37:22;42.40;;;30.00;;
59093;SDS011;44880;52.814;18.270;2022-10-16T03:39:54;41.80;;;28.90;;
59093;SDS011;44880;52.814;18.270;2022-10-16T03:42:25;43.20;;;31.90;;
59093;SDS011;44880;52.814;18.270;2022-10-16T03:44:57;41.90;;;30.00;;
59093;SDS011;44880;52.814;18.270;2022-10-16T03:47:28;40.30;;;29.30;;
59093;SDS011;44880;52.814;18.270;2022-10-16T03:50:01;36.80;;;26.90;;
59093;SDS011;44880;52.814;18.270;2022-10-16T03:52:34;35.30;;;26.00;;
59093;SDS011;44880;52.814;18.270;2022-10-16T03:55:06;37.80;;;26.70;;
59093;SDS011;44880;52.814;18.270;2022-10-16T03:57:38;35.40;;;26.10;;
59093;SDS011;44880;52.814;18.270;2022-10-16T04:00:11;33.40;;;24.80;;
59093;SDS011;44880;52.814;18.270;2022-10-16T04:02:43;31.10;;;22.00;;
59093;SDS011;44880;52.814;18.270;2022-10-16T04:05:14;31.50;;;24.00;;
59093;SDS011;44880;52.814;18.270;2022-10-16T04:07:46;33.80;;;23.20;;
59093;SDS011;44880;52.814;18.270;2022-10-16T04:10:17;31.20;;;22.80;;
59093;SDS011;44880;52.814;18.270;2022-10-16T04:12:49;30.40;;;23.70;;
59093;SDS011;44880;52.814;18.270;2022-10-16T04:15:23;31.00;;;22.90;;
59093;SDS011;44880;52.814;18.270;2022-10-16T04:17:55;34.20;;;24.90;;
59093;SDS011;44880;52.814;18.270;2022-10-16T04:20:27;31.30;;;23.30;;
59093;SDS011;44880;52.814;18.270;2022-10-16T04:22:58;27.90;;;20.90;;
59093;SDS011;44880;52.814;18.270;2022-10-16T04:25:30;30.30;;;21.80;;
59093;SDS011;44880;52.814;18.270;2022-10-16T04:28:01;31.60;;;21.60;;
59093;SDS011;44880;52.814;18.270;2022-10-16T04:30:33;32.00;;;20.60;;
59093;SDS011;44880;52.814;18.270;2022-10-16T04:33:07;29.20;;;21.00;;
59093;SDS011;44880;52.814;18.270;2022-10-16T04:35:40;29.30;;;21.30;;
59093;SDS011;44880;52.814;18.270;2022-10-16T04:38:12;29.60;;;24.30;;
59093;SDS011;44880;52.814;18.270;2022-10-16T04:43:14;30.80;;;24.70;;
59093;SDS011;44880;52.814;18.270;2022-10-16T04:45:46;31.10;;;25.70;;
59093;SDS011;44880;52.814;18.270;2022-10-16T04:48:18;32.30;;;23.80;;
59093;SDS011;44880;52.814;18.270;2022-10-16T04:50:50;32.70;;;24.90;;
59093;SDS011;44880;52.814;18.270;2022-10-16T04:53:21;31.30;;;23.50;;
59093;SDS011;44880;52.814;18.270;2022-10-16T04:55:53;24.20;;;19.10;;
59093;SDS011;44880;52.814;18.270;2022-10-16T04:58:25;24.70;;;18.40;;
59093;SDS011;44880;52.814;18.270;2022-10-16T05:00:56;23.50;;;16.40;;
59093;SDS011;44880;52.814;18.270;2022-10-16T05:03:28;21.70;;;15.70;;
59093;SDS011;44880;52.814;18.270;2022-10-16T05:06:00;21.90;;;15.90;;
59093;SDS011;44880;52.814;18.270;2022-10-16T05:11:02;20.40;;;14.80;;
59093;SDS011;44880;52.814;18.270;2022-10-16T05:13:34;22.10;;;15.70;;
59093;SDS011;44880;52.814;18.270;2022-10-16T05:16:06;23.00;;;14.80;;
59093;SDS011;44880;52.814;18.270;2022-10-16T05:21:07;20.60;;;14.80;;
59093;SDS011;44880;52.814;18.270;2022-10-16T05:23:39;23.20;;;15.70;;
59093;SDS011;44880;52.814;18.270;2022-10-16T05:26:10;22.70;;;16.30;;
59093;SDS011;44880;52.814;18.270;2022-10-16T05:28:42;21.50;;;14.70;;
59093;SDS011;44880;52.814;18.270;2022-10-16T05:31:13;20.50;;;13.60;;
59093;SDS011;44880;52.814;18.270;2022-10-16T05:33:45;23.40;;;13.80;;
59093;SDS011;44880;52.814;18.270;2022-10-16T05:36:17;20.50;;;13.10;;
59093;SDS011;44880;52.814;18.270;2022-10-16T05:38:50;20.10;;;13.10;;
59093;SDS011;44880;52.814;18.270;2022-10-16T05:41:22;20.90;;;12.80;;
59093;SDS011;44880;52.814;18.270;2022-10-16T05:43:56;23.70;;;13.00;;
59093;SDS011;44880;52.814;18.270;2022-10-16T05:46:33;20.60;;;13.20;;
59093;SDS011;44880;52.814;18.270;2022-10-16T05:49:05;20.80;;;13.70;;
59093;SDS011;44880;52.814;18.270;2022-10-16T05:51:37;23.90;;;14.80;;
59093;SDS011;44880;52.814;18.270;2022-10-16T05:54:12;22.50;;;15.30;;
59093;SDS011;44880;52.814;18.270;2022-10-16T05:56:44;21.20;;;14.00;;
59093;SDS011;44880;52.814;18.270;2022-10-16T05:59:15;22.50;;;15.00;;
59093;SDS011;44880;52.814;18.270;2022-10-16T06:01:46;25.90;;;16.00;;
59093;SDS011;44880;52.814;18.270;2022-10-16T06:04:21;23.90;;;15.70;;
59093;SDS011;44880;52.814;18.270;2022-10-16T06:06:53;30.80;;;19.30;;
59093;SDS011;44880;52.814;18.270;2022-10-16T06:09:24;26.10;;;17.30;;
59093;SDS011;44880;52.814;18.270;2022-10-16T06:11:56;29.80;;;17.20;;
59093;SDS011;44880;52.814;18.270;2022-10-16T06:14:34;28.70;;;18.30;;
59093;SDS011;44880;52.814;18.270;2022-10-16T06:17:05;33.10;;;22.40;;
59093;SDS011;44880;52.814;18.270;2022-10-16T06:19:37;32.40;;;20.60;;
59093;SDS011;44880;52.814;18.270;2022-10-16T06:22:08;30.70;;;19.80;;
59093;SDS011;44880;52.814;18.270;2022-10-16T06:25:09;27.30;;;18.80;;
59093;SDS011;44880;52.814;18.270;2022-10-16T06:27:41;26.60;;;18.70;;
59093;SDS011;44880;52.814;18.270;2022-10-16T06:30:15;30.70;;;19.30;;
59093;SDS011;44880;52.814;18.270;2022-10-16T06:32:47;29.70;;;17.80;;
59093;SDS011;44880;52.814;18.270;2022-10-16T06:35:18;23.30;;;15.20;;
59093;SDS011;44880;52.814;18.270;2022-10-16T06:37:50;20.30;;;12.90;;
59093;SDS011;44880;52.814;18.270;2022-10-16T06:40:27;21.90;;;14.30;;
59093;SDS011;44880;52.814;18.270;2022-10-16T06:42:59;22.20;;;14.30;;
59093;SDS011;44880;52.814;18.270;2022-10-16T06:45:30;21.70;;;14.00;;
59093;SDS011;44880;52.814;18.270;2022-10-16T06:48:02;21.10;;;13.40;;
59093;SDS011;44880;52.814;18.270;2022-10-16T06:51:08;18.30;;;11.90;;
59093;SDS011;44880;52.814;18.270;2022-10-16T06:53:41;18.10;;;12.60;;
59093;SDS011;44880;52.814;18.270;2022-10-16T06:56:21;17.50;;;11.50;;
59093;SDS011;44880;52.814;18.270;2022-10-16T06:58:53;17.60;;;11.70;;
59093;SDS011;44880;52.814;18.270;2022-10-16T07:01:25;17.00;;;11.30;;
59093;SDS011;44880;52.814;18.270;2022-10-16T07:04:15;20.70;;;10.90;;
59093;SDS011;44880;52.814;18.270;2022-10-16T07:06:47;15.00;;;9.60;;
59093;SDS011;44880;52.814;18.270;2022-10-16T07:09:19;16.70;;;10.80;;
59093;SDS011;44880;52.814;18.270;2022-10-16T07:14:45;19.00;;;12.10;;
59093;SDS011;44880;52.814;18.270;2022-10-16T07:17:17;21.20;;;13.90;;
59093;SDS011;44880;52.814;18.270;2022-10-16T07:20:10;19.50;;;12.50;;
59093;SDS011;44880;52.814;18.270;2022-10-16T07:22:42;20.10;;;12.30;;
59093;SDS011;44880;52.814;18.270;2022-10-16T07:25:14;17.70;;;11.80;;
59093;SDS011;44880;52.814;18.270;2022-10-16T07:27:56;18.90;;;10.50;;
59093;SDS011;44880;52.814;18.270;2022-10-16T07:30:28;16.00;;;9.60;;
59093;SDS011;44880;52.814;18.270;2022-10-16T07:32:59;14.80;;;9.10;;
59093;SDS011;44880;52.814;18.270;2022-10-16T07:38:28;16.50;;;10.60;;
59093;SDS011;44880;52.814;18.270;2022-10-16T07:41:00;13.90;;;9.20;;
59093;SDS011;44880;52.814;18.270;2022-10-16T07:43:52;14.70;;;10.00;;
59093;SDS011;44880;52.814;18.270;2022-10-16T07:46:25;14.60;;;9.80;;
